sensor_id;sensor_type;location;lat;lon;timestamp;P1;durP1;ratioP1;P2;durP2;ratioP2
65275;SDS011;51875;49.994;14.052;2022-12-07T00:00:46;4.22;;;2.75;;
65275;SDS011;51875;49.994;14.052;2022-12-07T00:02:01;6.22;;;2.42;;
65275;SDS011;51875;49.994;14.052;2022-12-07T00:03:17;4.40;;;2.60;;
65275;SDS011;51875;49.994;14.052;2022-12-07T00:04:32;3.25;;;2.28;;
65275;SDS011;51875;49.994;14.052;2022-12-07T00:05:48;4.10;;;2.78;;
65275;SDS011;51875;49.994;14.052;2022-12-07T00:07:04;4.90;;;2.60;;
65275;SDS011;51875;49.994;14.052;2022-12-07T00:08:19;4.25;;;2.70;;
65275;SDS011;51875;49.994;14.052;2022-12-07T00:09:35;4.53;;;2.55;;
65275;SDS011;51875;49.994;14.052;2022-12-07T00:10:50;6.55;;;3.00;;
65275;SDS011;51875;49.994;14.052;2022-12-07T00:12:06;5.45;;;2.78;;
65275;SDS011;51875;49.994;14.052;2022-12-07T00:13:21;5.05;;;2.85;;
65275;SDS011;51875;49.994;14.052;2022-12-07T00:14:37;5.35;;;2.50;;
65275;SDS011;51875;49.994;14.052;2022-12-07T00:15:53;5.03;;;2.90;;
65275;SDS011;51875;49.994;14.052;2022-12-07T00:17:08;5.70;;;2.92;;
65275;SDS011;51875;49.994;14.052;2022-12-07T00:18:24;5.43;;;3.17;;
65275;SDS011;51875;49.994;14.052;2022-12-07T00:19:39;5.97;;;3.08;;
65275;SDS011;51875;49.994;14.052;2022-12-07T00:20:59;4.72;;;2.90;;
65275;SDS011;51875;49.994;14.052;2022-12-07T00:22:28;6.75;;;2.85;;
65275;SDS011;51875;49.994;14.052;2022-12-07T00:23:44;6.00;;;3.60;;
65275;SDS011;51875;49.994;14.052;2022-12-07T00:25:00;5.70;;;3.58;;
65275;SDS011;51875;49.994;14.052;2022-12-07T00:26:18;6.35;;;2.88;;
65275;SDS011;51875;49.994;14.052;2022-12-07T00:27:35;5.93;;;3.30;;
65275;SDS011;51875;49.994;14.052;2022-12-07T00:28:52;7.65;;;3.17;;
65275;SDS011;51875;49.994;14.052;2022-12-07T00:30:10;6.43;;;3.17;;
65275;SDS011;51875;49.994;14.052;2022-12-07T00:31:27;5.63;;;2.90;;
65275;SDS011;51875;49.994;14.052;2022-12-07T00:32:44;4.35;;;2.72;;
65275;SDS011;51875;49.994;14.052;2022-12-07T00:34:00;5.88;;;3.00;;
65275;SDS011;51875;49.994;14.052;2022-12-07T00:35:15;5.28;;;2.90;;
65275;SDS011;51875;49.994;14.052;2022-12-07T00:36:31;3.70;;;2.45;;
65275;SDS011;51875;49.994;14.052;2022-12-07T00:37:47;3.85;;;2.33;;
65275;SDS011;51875;49.994;14.052;2022-12-07T00:39:03;3.65;;;2.75;;
65275;SDS011;51875;49.994;14.052;2022-12-07T00:40:18;5.55;;;2.80;;
65275;SDS011;51875;49.994;14.052;2022-12-07T00:41:34;4.28;;;2.72;;
65275;SDS011;51875;49.994;14.052;2022-12-07T00:42:50;4.55;;;2.40;;
65275;SDS011;51875;49.994;14.052;2022-12-07T00:44:05;3.50;;;2.50;;
65275;SDS011;51875;49.994;14.052;2022-12-07T00:45:21;6.68;;;2.63;;
65275;SDS011;51875;49.994;14.052;2022-12-07T00:46:36;4.25;;;2.75;;
65275;SDS011;51875;49.994;14.052;2022-12-07T00:47:52;5.75;;;2.30;;
65275;SDS011;51875;49.994;14.052;2022-12-07T00:49:08;3.95;;;2.42;;
65275;SDS011;51875;49.994;14.052;2022-12-07T00:50:23;3.92;;;2.22;;
65275;SDS011;51875;49.994;14.052;2022-12-07T00:51:39;4.03;;;2.10;;
65275;SDS011;51875;49.994;14.052;2022-12-07T00:52:55;3.85;;;2.25;;
65275;SDS011;51875;49.994;14.052;2022-12-07T00:54:11;3.10;;;2.00;;
65275;SDS011;51875;49.994;14.052;2022-12-07T00:55:26;3.75;;;2.58;;
65275;SDS011;51875;49.994;14.052;2022-12-07T00:56:42;4.53;;;2.78;;
65275;SDS011;51875;49.994;14.052;2022-12-07T00:57:57;3.55;;;2.40;;
65275;SDS011;51875;49.994;14.052;2022-12-07T00:59:13;3.25;;;2.08;;
65275;SDS011;51875;49.994;14.052;2022-12-07T01:00:30;2.95;;;1.92;;
65275;SDS011;51875;49.994;14.052;2022-12-07T01:01:46;3.72;;;2.17;;
65275;SDS011;51875;49.994;14.052;2022-12-07T01:03:02;3.40;;;2.25;;
65275;SDS011;51875;49.994;14.052;2022-12-07T01:04:18;3.53;;;2.38;;
65275;SDS011;51875;49.994;14.052;2022-12-07T01:05:33;3.55;;;2.20;;
65275;SDS011;51875;49.994;14.052;2022-12-07T01:06:49;3.70;;;2.30;;
65275;SDS011;51875;49.994;14.052;2022-12-07T01:08:05;2.75;;;2.08;;
65275;SDS011;51875;49.994;14.052;2022-12-07T01:09:22;3.70;;;2.20;;
65275;SDS011;51875;49.994;14.052;2022-12-07T01:10:37;3.55;;;2.17;;
65275;SDS011;51875;49.994;14.052;2022-12-07T01:11:53;3.33;;;2.30;;
65275;SDS011;51875;49.994;14.052;2022-12-07T01:13:08;3.80;;;2.13;;
65275;SDS011;51875;49.994;14.052;2022-12-07T01:14:24;2.47;;;1.92;;
65275;SDS011;51875;49.994;14.052;2022-12-07T01:15:40;3.45;;;2.20;;
65275;SDS011;51875;49.994;14.052;2022-12-07T01:16:57;3.22;;;1.95;;
65275;SDS011;51875;49.994;14.052;2022-12-07T01:18:13;2.83;;;1.90;;
65275;SDS011;51875;49.994;14.052;2022-12-07T01:19:29;3.33;;;1.92;;
65275;SDS011;51875;49.994;14.052;2022-12-07T01:20:44;4.28;;;2.17;;
65275;SDS011;51875;49.994;14.052;2022-12-07T01:22:00;3.53;;;2.42;;
65275;SDS011;51875;49.994;14.052;2022-12-07T01:23:16;4.95;;;2.30;;
65275;SDS011;51875;49.994;14.052;2022-12-07T01:24:31;3.63;;;2.42;;
65275;SDS011;51875;49.994;14.052;2022-12-07T01:25:53;3.20;;;2.30;;
65275;SDS011;51875;49.994;14.052;2022-12-07T01:27:19;4.30;;;2.60;;
65275;SDS011;51875;49.994;14.052;2022-12-07T01:28:35;3.45;;;2.25;;
65275;SDS011;51875;49.994;14.052;2022-12-07T01:29:51;3.90;;;2.17;;
65275;SDS011;51875;49.994;14.052;2022-12-07T01:32:30;3.17;;;2.03;;
65275;SDS011;51875;49.994;14.052;2022-12-07T01:33:47;2.88;;;2.22;;
65275;SDS011;51875;49.994;14.052;2022-12-07T01:35:04;2.75;;;2.05;;
65275;SDS011;51875;49.994;14.052;2022-12-07T01:36:21;3.53;;;2.38;;
65275;SDS011;51875;49.994;14.052;2022-12-07T01:37:46;3.42;;;2.15;;
65275;SDS011;51875;49.994;14.052;2022-12-07T01:39:03;4.10;;;2.03;;
65275;SDS011;51875;49.994;14.052;2022-12-07T01:40:20;5.65;;;2.90;;
65275;SDS011;51875;49.994;14.052;2022-12-07T01:41:37;3.63;;;2.25;;
65275;SDS011;51875;49.994;14.052;2022-12-07T01:42:55;2.75;;;1.92;;
65275;SDS011;51875;49.994;14.052;2022-12-07T01:45:41;3.22;;;2.38;;
65275;SDS011;51875;49.994;14.052;2022-12-07T01:47:01;4.30;;;2.45;;
65275;SDS011;51875;49.994;14.052;2022-12-07T01:48:19;4.30;;;2.40;;
65275;SDS011;51875;49.994;14.052;2022-12-07T01:49:43;3.47;;;2.00;;
65275;SDS011;51875;49.994;14.052;2022-12-07T01:51:07;3.70;;;2.45;;
65275;SDS011;51875;49.994;14.052;2022-12-07T01:52:27;4.80;;;2.70;;
65275;SDS011;51875;49.994;14.052;2022-12-07T01:53:45;4.13;;;2.38;;
65275;SDS011;51875;49.994;14.052;2022-12-07T01:55:03;4.65;;;2.60;;
65275;SDS011;51875;49.994;14.052;2022-12-07T01:56:22;3.58;;;2.45;;
65275;SDS011;51875;49.994;14.052;2022-12-07T01:57:42;3.50;;;2.35;;
65275;SDS011;51875;49.994;14.052;2022-12-07T01:59:02;3.85;;;2.67;;
65275;SDS011;51875;49.994;14.052;2022-12-07T02:00:19;3.83;;;2.38;;
65275;SDS011;51875;49.994;14.052;2022-12-07T02:01:35;4.25;;;2.63;;
65275;SDS011;51875;49.994;14.052;2022-12-07T02:04:09;3.80;;;2.58;;
65275;SDS011;51875;49.994;14.052;2022-12-07T02:05:26;4.18;;;2.45;;
65275;SDS011;51875;49.994;14.052;2022-12-07T02:06:42;4.03;;;2.58;;
65275;SDS011;51875;49.994;14.052;2022-12-07T02:07:59;4.95;;;2.70;;
65275;SDS011;51875;49.994;14.052;2022-12-07T02:09:16;4.43;;;3.13;;
65275;SDS011;51875;49.994;14.052;2022-12-07T02:10:32;4.30;;;2.63;;
65275;SDS011;51875;49.994;14.052;2022-12-07T02:11:48;13.38;;;3.20;;
65275;SDS011;51875;49.994;14.052;2022-12-07T02:13:15;2.88;;;2.15;;
65275;SDS011;51875;49.994;14.052;2022-12-07T02:14:34;4.35;;;2.47;;
65275;SDS011;51875;49.994;14.052;2022-12-07T02:17:15;3.55;;;2.30;;
65275;SDS011;51875;49.994;14.052;2022-12-07T02:20:38;2.63;;;2.20;;
65275;SDS011;51875;49.994;14.052;2022-12-07T02:25:40;3.65;;;2.15;;
65275;SDS011;51875;49.994;14.052;2022-12-07T02:29:08;4.07;;;2.50;;
65275;SDS011;51875;49.994;14.052;2022-12-07T02:30:26;2.83;;;1.95;;
65275;SDS011;51875;49.994;14.052;2022-12-07T02:31:50;3.55;;;2.42;;
65275;SDS011;51875;49.994;14.052;2022-12-07T02:33:11;3.92;;;2.22;;
65275;SDS011;51875;49.994;14.052;2022-12-07T02:34:40;5.28;;;2.30;;
65275;SDS011;51875;49.994;14.052;2022-12-07T02:36:10;3.05;;;2.30;;
65275;SDS011;51875;49.994;14.052;2022-12-07T02:39:28;3.45;;;2.28;;
65275;SDS011;51875;49.994;14.052;2022-12-07T02:40:54;3.25;;;2.10;;
65275;SDS011;51875;49.994;14.052;2022-12-07T02:42:18;5.90;;;2.53;;
65275;SDS011;51875;49.994;14.052;2022-12-07T02:45:01;3.72;;;2.63;;
65275;SDS011;51875;49.994;14.052;2022-12-07T02:46:29;4.20;;;2.72;;
65275;SDS011;51875;49.994;14.052;2022-12-07T02:47:50;2.45;;;1.48;;
65275;SDS011;51875;49.994;14.052;2022-12-07T02:49:08;5.05;;;2.63;;
65275;SDS011;51875;49.994;14.052;2022-12-07T02:50:26;3.10;;;1.80;;
65275;SDS011;51875;49.994;14.052;2022-12-07T02:51:42;3.60;;;2.00;;
65275;SDS011;51875;49.994;14.052;2022-12-07T02:53:01;4.93;;;3.20;;
65275;SDS011;51875;49.994;14.052;2022-12-07T02:54:17;4.80;;;2.55;;
65275;SDS011;51875;49.994;14.052;2022-12-07T02:55:37;3.83;;;2.60;;
65275;SDS011;51875;49.994;14.052;2022-12-07T02:57:00;3.60;;;2.53;;
65275;SDS011;51875;49.994;14.052;2022-12-07T02:58:24;4.65;;;2.50;;
65275;SDS011;51875;49.994;14.052;2022-12-07T03:00:09;5.55;;;3.00;;
65275;SDS011;51875;49.994;14.052;2022-12-07T03:01:30;6.05;;;2.47;;
65275;SDS011;51875;49.994;14.052;2022-12-07T03:03:02;6.03;;;3.00;;
65275;SDS011;51875;49.994;14.052;2022-12-07T03:06:06;5.07;;;2.83;;
65275;SDS011;51875;49.994;14.052;2022-12-07T03:09:20;5.22;;;3.17;;
65275;SDS011;51875;49.994;14.052;2022-12-07T03:11:02;4.68;;;2.92;;
65275;SDS011;51875;49.994;14.052;2022-12-07T03:12:26;5.15;;;3.13;;
65275;SDS011;51875;49.994;14.052;2022-12-07T03:15:17;4.57;;;2.92;;
65275;SDS011;51875;49.994;14.052;2022-12-07T03:18:19;4.82;;;3.00;;
65275;SDS011;51875;49.994;14.052;2022-12-07T03:19:36;6.05;;;3.08;;
65275;SDS011;51875;49.994;14.052;2022-12-07T03:20:55;4.70;;;3.00;;
65275;SDS011;51875;49.994;14.052;2022-12-07T03:22:14;4.97;;;2.85;;
65275;SDS011;51875;49.994;14.052;2022-12-07T03:23:31;6.22;;;3.00;;
65275;SDS011;51875;49.994;14.052;2022-12-07T03:24:51;5.03;;;3.10;;
65275;SDS011;51875;49.994;14.052;2022-12-07T03:26:10;5.32;;;3.28;;
65275;SDS011;51875;49.994;14.052;2022-12-07T03:29:20;4.78;;;2.95;;
65275;SDS011;51875;49.994;14.052;2022-12-07T03:30:49;6.45;;;3.67;;
65275;SDS011;51875;49.994;14.052;2022-12-07T03:35:47;4.55;;;2.75;;
65275;SDS011;51875;49.994;14.052;2022-12-07T03:37:45;6.07;;;3.25;;
65275;SDS011;51875;49.994;14.052;2022-12-07T03:39:17;4.35;;;2.47;;
65275;SDS011;51875;49.994;14.052;2022-12-07T03:42:20;5.35;;;2.80;;
65275;SDS011;51875;49.994;14.052;2022-12-07T03:43:35;6.53;;;3.45;;
65275;SDS011;51875;49.994;14.052;2022-12-07T03:44:52;5.35;;;3.42;;
65275;SDS011;51875;49.994;14.052;2022-12-07T03:46:16;3.63;;;2.60;;
65275;SDS011;51875;49.994;14.052;2022-12-07T03:50:42;5.45;;;3.55;;
65275;SDS011;51875;49.994;14.052;2022-12-07T03:52:25;5.10;;;2.90;;
65275;SDS011;51875;49.994;14.052;2022-12-07T03:53:39;5.15;;;3.28;;
65275;SDS011;51875;49.994;14.052;2022-12-07T03:56:35;4.95;;;3.17;;
65275;SDS011;51875;49.994;14.052;2022-12-07T03:57:53;5.28;;;3.40;;
65275;SDS011;51875;49.994;14.052;2022-12-07T03:59:13;5.53;;;3.08;;
65275;SDS011;51875;49.994;14.052;2022-12-07T04:00:30;4.47;;;2.85;;
65275;SDS011;51875;49.994;14.052;2022-12-07T04:01:51;5.85;;;3.30;;
65275;SDS011;51875;49.994;14.052;2022-12-07T04:03:10;6.25;;;3.20;;
65275;SDS011;51875;49.994;14.052;2022-12-07T04:04:26;6.03;;;3.60;;
65275;SDS011;51875;49.994;14.052;2022-12-07T04:05:42;6.43;;;3.90;;
65275;SDS011;51875;49.994;14.052;2022-12-07T04:06:59;4.70;;;3.08;;
65275;SDS011;51875;49.994;14.052;2022-12-07T04:08:14;4.75;;;3.10;;
65275;SDS011;51875;49.994;14.052;2022-12-07T04:09:30;6.20;;;3.60;;
65275;SDS011;51875;49.994;14.052;2022-12-07T04:10:45;6.85;;;3.67;;
65275;SDS011;51875;49.994;14.052;2022-12-07T04:12:01;7.65;;;3.60;;
65275;SDS011;51875;49.994;14.052;2022-12-07T04:13:17;7.72;;;3.97;;
65275;SDS011;51875;49.994;14.052;2022-12-07T04:14:32;5.53;;;3.55;;
65275;SDS011;51875;49.994;14.052;2022-12-07T04:15:48;4.07;;;3.00;;
65275;SDS011;51875;49.994;14.052;2022-12-07T04:17:03;7.10;;;3.72;;
65275;SDS011;51875;49.994;14.052;2022-12-07T04:18:19;7.18;;;3.80;;
65275;SDS011;51875;49.994;14.052;2022-12-07T04:19:35;9.18;;;4.07;;
65275;SDS011;51875;49.994;14.052;2022-12-07T04:20:50;4.93;;;3.13;;
65275;SDS011;51875;49.994;14.052;2022-12-07T04:22:06;6.97;;;3.80;;
65275;SDS011;51875;49.994;14.052;2022-12-07T04:23:22;6.15;;;3.63;;
65275;SDS011;51875;49.994;14.052;2022-12-07T04:24:38;5.95;;;3.47;;
65275;SDS011;51875;49.994;14.052;2022-12-07T04:25:53;6.95;;;4.05;;
65275;SDS011;51875;49.994;14.052;2022-12-07T04:27:09;6.03;;;3.60;;
65275;SDS011;51875;49.994;14.052;2022-12-07T04:28:25;6.63;;;4.13;;
65275;SDS011;51875;49.994;14.052;2022-12-07T04:29:40;7.10;;;3.88;;
65275;SDS011;51875;49.994;14.052;2022-12-07T04:30:56;7.00;;;3.92;;
65275;SDS011;51875;49.994;14.052;2022-12-07T04:32:11;7.85;;;3.95;;
65275;SDS011;51875;49.994;14.052;2022-12-07T04:33:27;7.38;;;4.10;;
65275;SDS011;51875;49.994;14.052;2022-12-07T04:34:43;4.97;;;2.85;;
65275;SDS011;51875;49.994;14.052;2022-12-07T04:35:58;8.57;;;4.28;;
65275;SDS011;51875;49.994;14.052;2022-12-07T04:37:14;9.93;;;4.43;;
65275;SDS011;51875;49.994;14.052;2022-12-07T04:38:30;8.80;;;4.47;;
65275;SDS011;51875;49.994;14.052;2022-12-07T04:39:45;7.18;;;4.00;;
65275;SDS011;51875;49.994;14.052;2022-12-07T04:41:04;6.57;;;4.05;;
65275;SDS011;51875;49.994;14.052;2022-12-07T04:43:39;7.07;;;3.63;;
65275;SDS011;51875;49.994;14.052;2022-12-07T04:44:54;7.60;;;4.07;;
65275;SDS011;51875;49.994;14.052;2022-12-07T04:46:10;7.30;;;4.00;;
65275;SDS011;51875;49.994;14.052;2022-12-07T04:47:25;8.13;;;3.85;;
65275;SDS011;51875;49.994;14.052;2022-12-07T04:48:41;9.73;;;4.45;;
65275;SDS011;51875;49.994;14.052;2022-12-07T04:49:57;8.55;;;4.35;;
65275;SDS011;51875;49.994;14.052;2022-12-07T04:51:12;9.32;;;4.88;;
65275;SDS011;51875;49.994;14.052;2022-12-07T04:52:29;7.47;;;4.28;;
65275;SDS011;51875;49.994;14.052;2022-12-07T04:53:45;7.68;;;4.38;;
65275;SDS011;51875;49.994;14.052;2022-12-07T04:55:01;8.50;;;4.03;;
65275;SDS011;51875;49.994;14.052;2022-12-07T04:56:17;6.80;;;3.72;;
65275;SDS011;51875;49.994;14.052;2022-12-07T04:57:33;6.85;;;4.18;;
65275;SDS011;51875;49.994;14.052;2022-12-07T04:58:49;6.50;;;3.47;;
65275;SDS011;51875;49.994;14.052;2022-12-07T05:00:06;6.93;;;4.28;;
65275;SDS011;51875;49.994;14.052;2022-12-07T05:01:22;7.97;;;4.30;;
65275;SDS011;51875;49.994;14.052;2022-12-07T05:02:38;7.78;;;4.18;;
65275;SDS011;51875;49.994;14.052;2022-12-07T05:03:54;7.65;;;4.07;;
65275;SDS011;51875;49.994;14.052;2022-12-07T05:05:10;8.52;;;4.07;;
65275;SDS011;51875;49.994;14.052;2022-12-07T05:06:26;7.20;;;4.10;;
65275;SDS011;51875;49.994;14.052;2022-12-07T05:07:41;7.85;;;4.50;;
65275;SDS011;51875;49.994;14.052;2022-12-07T05:08:57;8.32;;;4.38;;
65275;SDS011;51875;49.994;14.052;2022-12-07T05:10:13;5.20;;;3.83;;
65275;SDS011;51875;49.994;14.052;2022-12-07T05:11:28;9.18;;;4.57;;
65275;SDS011;51875;49.994;14.052;2022-12-07T05:12:53;6.07;;;3.53;;
65275;SDS011;51875;49.994;14.052;2022-12-07T05:14:19;7.53;;;4.30;;
65275;SDS011;51875;49.994;14.052;2022-12-07T05:15:35;9.02;;;4.57;;
65275;SDS011;51875;49.994;14.052;2022-12-07T05:16:51;6.43;;;3.60;;
65275;SDS011;51875;49.994;14.052;2022-12-07T05:18:08;8.98;;;4.60;;
65275;SDS011;51875;49.994;14.052;2022-12-07T05:19:25;8.77;;;4.13;;
65275;SDS011;51875;49.994;14.052;2022-12-07T05:20:41;6.90;;;4.30;;
65275;SDS011;51875;49.994;14.052;2022-12-07T05:21:57;5.95;;;3.78;;
65275;SDS011;51875;49.994;14.052;2022-12-07T05:23:13;7.60;;;3.97;;
65275;SDS011;51875;49.994;14.052;2022-12-07T05:24:29;7.07;;;4.28;;
65275;SDS011;51875;49.994;14.052;2022-12-07T05:25:45;7.22;;;3.55;;
65275;SDS011;51875;49.994;14.052;2022-12-07T05:27:01;7.20;;;3.85;;
65275;SDS011;51875;49.994;14.052;2022-12-07T05:28:17;7.85;;;4.15;;
65275;SDS011;51875;49.994;14.052;2022-12-07T05:29:32;4.07;;;2.65;;
65275;SDS011;51875;49.994;14.052;2022-12-07T05:30:48;6.95;;;3.95;;
65275;SDS011;51875;49.994;14.052;2022-12-07T05:32:03;6.75;;;3.90;;
65275;SDS011;51875;49.994;14.052;2022-12-07T05:33:19;6.82;;;2.95;;
65275;SDS011;51875;49.994;14.052;2022-12-07T05:34:35;8.27;;;4.15;;
65275;SDS011;51875;49.994;14.052;2022-12-07T05:35:50;5.75;;;3.60;;
65275;SDS011;51875;49.994;14.052;2022-12-07T05:37:06;6.75;;;3.88;;
65275;SDS011;51875;49.994;14.052;2022-12-07T05:38:21;7.35;;;4.10;;
65275;SDS011;51875;49.994;14.052;2022-12-07T05:39:37;7.25;;;3.92;;
65275;SDS011;51875;49.994;14.052;2022-12-07T05:40:55;7.60;;;4.22;;
65275;SDS011;51875;49.994;14.052;2022-12-07T05:42:16;7.70;;;4.00;;
65275;SDS011;51875;49.994;14.052;2022-12-07T05:43:32;6.95;;;3.40;;
65275;SDS011;51875;49.994;14.052;2022-12-07T05:44:48;7.22;;;3.92;;
65275;SDS011;51875;49.994;14.052;2022-12-07T05:46:04;6.28;;;3.30;;
65275;SDS011;51875;49.994;14.052;2022-12-07T05:47:19;5.30;;;3.33;;
65275;SDS011;51875;49.994;14.052;2022-12-07T05:48:35;6.00;;;2.70;;
65275;SDS011;51875;49.994;14.052;2022-12-07T05:49:51;6.80;;;3.70;;
65275;SDS011;51875;49.994;14.052;2022-12-07T05:51:07;6.57;;;3.65;;
65275;SDS011;51875;49.994;14.052;2022-12-07T05:52:22;6.80;;;3.90;;
65275;SDS011;51875;49.994;14.052;2022-12-07T05:53:38;6.63;;;3.35;;
65275;SDS011;51875;49.994;14.052;2022-12-07T05:54:54;7.53;;;3.50;;
65275;SDS011;51875;49.994;14.052;2022-12-07T05:56:09;5.68;;;3.60;;
65275;SDS011;51875;49.994;14.052;2022-12-07T05:57:25;7.28;;;3.28;;
65275;SDS011;51875;49.994;14.052;2022-12-07T05:58:40;7.75;;;4.03;;
65275;SDS011;51875;49.994;14.052;2022-12-07T06:00:15;6.15;;;3.15;;
65275;SDS011;51875;49.994;14.052;2022-12-07T06:01:30;5.47;;;3.63;;
65275;SDS011;51875;49.994;14.052;2022-12-07T06:02:46;6.25;;;3.60;;
65275;SDS011;51875;49.994;14.052;2022-12-07T06:04:02;7.00;;;3.15;;
65275;SDS011;51875;49.994;14.052;2022-12-07T06:05:18;7.38;;;3.63;;
65275;SDS011;51875;49.994;14.052;2022-12-07T06:06:33;8.05;;;4.00;;
65275;SDS011;51875;49.994;14.052;2022-12-07T06:07:49;6.22;;;3.38;;
65275;SDS011;51875;49.994;14.052;2022-12-07T06:09:05;5.35;;;3.22;;
65275;SDS011;51875;49.994;14.052;2022-12-07T06:10:20;5.68;;;2.90;;
65275;SDS011;51875;49.994;14.052;2022-12-07T06:11:36;5.03;;;2.35;;
65275;SDS011;51875;49.994;14.052;2022-12-07T06:13:10;6.10;;;3.40;;
65275;SDS011;51875;49.994;14.052;2022-12-07T06:14:26;6.40;;;3.65;;
65275;SDS011;51875;49.994;14.052;2022-12-07T06:15:42;7.05;;;3.45;;
65275;SDS011;51875;49.994;14.052;2022-12-07T06:16:57;4.80;;;2.85;;
65275;SDS011;51875;49.994;14.052;2022-12-07T06:18:14;5.22;;;2.72;;
65275;SDS011;51875;49.994;14.052;2022-12-07T06:19:29;7.93;;;3.75;;
65275;SDS011;51875;49.994;14.052;2022-12-07T06:20:45;3.88;;;1.67;;
65275;SDS011;51875;49.994;14.052;2022-12-07T06:22:01;5.70;;;3.00;;
65275;SDS011;51875;49.994;14.052;2022-12-07T06:23:19;6.38;;;2.88;;
65275;SDS011;51875;49.994;14.052;2022-12-07T06:24:35;6.97;;;2.80;;
65275;SDS011;51875;49.994;14.052;2022-12-07T06:25:51;10.68;;;3.08;;
65275;SDS011;51875;49.994;14.052;2022-12-07T06:27:06;6.82;;;2.60;;
65275;SDS011;51875;49.994;14.052;2022-12-07T06:28:22;3.63;;;2.38;;
65275;SDS011;51875;49.994;14.052;2022-12-07T06:29:37;6.07;;;3.20;;
65275;SDS011;51875;49.994;14.052;2022-12-07T06:31:00;4.97;;;2.50;;
65275;SDS011;51875;49.994;14.052;2022-12-07T06:32:16;4.93;;;2.83;;
65275;SDS011;51875;49.994;14.052;2022-12-07T06:33:32;4.45;;;2.90;;
65275;SDS011;51875;49.994;14.052;2022-12-07T06:34:47;6.90;;;3.28;;
65275;SDS011;51875;49.994;14.052;2022-12-07T06:36:03;4.63;;;2.65;;
65275;SDS011;51875;49.994;14.052;2022-12-07T06:37:19;5.30;;;2.90;;
65275;SDS011;51875;49.994;14.052;2022-12-07T06:38:34;6.13;;;3.08;;
65275;SDS011;51875;49.994;14.052;2022-12-07T06:39:50;6.28;;;2.72;;
65275;SDS011;51875;49.994;14.052;2022-12-07T06:41:06;4.05;;;2.67;;
65275;SDS011;51875;49.994;14.052;2022-12-07T06:42:21;5.57;;;3.10;;
65275;SDS011;51875;49.994;14.052;2022-12-07T06:43:37;5.13;;;2.58;;
65275;SDS011;51875;49.994;14.052;2022-12-07T06:44:53;5.43;;;2.55;;
65275;SDS011;51875;49.994;14.052;2022-12-07T06:46:09;4.70;;;2.50;;
65275;SDS011;51875;49.994;14.052;2022-12-07T06:47:24;7.15;;;2.90;;
65275;SDS011;51875;49.994;14.052;2022-12-07T06:48:40;5.75;;;3.53;;
65275;SDS011;51875;49.994;14.052;2022-12-07T06:49:57;5.00;;;2.80;;
65275;SDS011;51875;49.994;14.052;2022-12-07T06:51:13;4.55;;;2.63;;
65275;SDS011;51875;49.994;14.052;2022-12-07T06:52:28;5.30;;;2.85;;
65275;SDS011;51875;49.994;14.052;2022-12-07T06:53:45;3.72;;;2.20;;
65275;SDS011;51875;49.994;14.052;2022-12-07T06:55:01;4.88;;;3.08;;
65275;SDS011;51875;49.994;14.052;2022-12-07T06:56:16;3.97;;;2.17;;
65275;SDS011;51875;49.994;14.052;2022-12-07T06:57:32;4.32;;;2.60;;
65275;SDS011;51875;49.994;14.052;2022-12-07T06:58:47;7.07;;;3.17;;
65275;SDS011;51875;49.994;14.052;2022-12-07T07:00:04;6.45;;;3.28;;
65275;SDS011;51875;49.994;14.052;2022-12-07T07:01:20;7.63;;;3.33;;
65275;SDS011;51875;49.994;14.052;2022-12-07T07:02:36;5.75;;;2.70;;
65275;SDS011;51875;49.994;14.052;2022-12-07T07:03:51;5.72;;;2.83;;
65275;SDS011;51875;49.994;14.052;2022-12-07T07:05:07;5.97;;;3.20;;
65275;SDS011;51875;49.994;14.052;2022-12-07T07:06:23;6.13;;;2.95;;
65275;SDS011;51875;49.994;14.052;2022-12-07T07:07:39;6.20;;;3.55;;
65275;SDS011;51875;49.994;14.052;2022-12-07T07:08:54;6.65;;;3.42;;
65275;SDS011;51875;49.994;14.052;2022-12-07T07:10:10;5.88;;;2.78;;
65275;SDS011;51875;49.994;14.052;2022-12-07T07:11:26;6.57;;;3.67;;
65275;SDS011;51875;49.994;14.052;2022-12-07T07:12:41;4.72;;;3.15;;
65275;SDS011;51875;49.994;14.052;2022-12-07T07:13:57;6.05;;;3.30;;
65275;SDS011;51875;49.994;14.052;2022-12-07T07:15:17;5.15;;;2.70;;
65275;SDS011;51875;49.994;14.052;2022-12-07T07:16:33;6.13;;;3.10;;
65275;SDS011;51875;49.994;14.052;2022-12-07T07:17:48;5.72;;;3.05;;
65275;SDS011;51875;49.994;14.052;2022-12-07T07:19:04;7.25;;;3.90;;
65275;SDS011;51875;49.994;14.052;2022-12-07T07:20:19;5.93;;;3.30;;
65275;SDS011;51875;49.994;14.052;2022-12-07T07:21:36;5.85;;;3.15;;
65275;SDS011;51875;49.994;14.052;2022-12-07T07:22:53;8.05;;;3.70;;
65275;SDS011;51875;49.994;14.052;2022-12-07T07:24:09;5.70;;;3.03;;
65275;SDS011;51875;49.994;14.052;2022-12-07T07:25:25;8.23;;;3.70;;
65275;SDS011;51875;49.994;14.052;2022-12-07T07:26:41;6.45;;;3.38;;
65275;SDS011;51875;49.994;14.052;2022-12-07T07:27:56;5.63;;;3.17;;
65275;SDS011;51875;49.994;14.052;2022-12-07T07:29:12;5.70;;;3.25;;
65275;SDS011;51875;49.994;14.052;2022-12-07T07:30:28;6.72;;;3.53;;
65275;SDS011;51875;49.994;14.052;2022-12-07T07:31:43;6.78;;;2.95;;
65275;SDS011;51875;49.994;14.052;2022-12-07T07:32:59;6.18;;;3.25;;
65275;SDS011;51875;49.994;14.052;2022-12-07T07:34:16;5.40;;;2.75;;
65275;SDS011;51875;49.994;14.052;2022-12-07T07:35:32;5.75;;;3.00;;
65275;SDS011;51875;49.994;14.052;2022-12-07T07:36:49;6.88;;;3.60;;
65275;SDS011;51875;49.994;14.052;2022-12-07T07:38:05;5.15;;;3.42;;
65275;SDS011;51875;49.994;14.052;2022-12-07T07:39:21;6.63;;;3.60;;
65275;SDS011;51875;49.994;14.052;2022-12-07T07:40:36;8.05;;;4.53;;
65275;SDS011;51875;49.994;14.052;2022-12-07T07:41:52;14.35;;;5.95;;
65275;SDS011;51875;49.994;14.052;2022-12-07T07:43:08;9.23;;;4.60;;
65275;SDS011;51875;49.994;14.052;2022-12-07T07:44:23;6.95;;;3.58;;
65275;SDS011;51875;49.994;14.052;2022-12-07T07:45:39;8.07;;;3.90;;
65275;SDS011;51875;49.994;14.052;2022-12-07T07:46:55;7.63;;;3.20;;
65275;SDS011;51875;49.994;14.052;2022-12-07T07:48:11;6.28;;;2.85;;
65275;SDS011;51875;49.994;14.052;2022-12-07T07:49:26;8.77;;;4.78;;
65275;SDS011;51875;49.994;14.052;2022-12-07T07:50:42;9.32;;;4.82;;
65275;SDS011;51875;49.994;14.052;2022-12-07T07:51:58;8.98;;;4.05;;
65275;SDS011;51875;49.994;14.052;2022-12-07T07:53:13;7.55;;;3.85;;
65275;SDS011;51875;49.994;14.052;2022-12-07T07:54:29;6.60;;;3.55;;
65275;SDS011;51875;49.994;14.052;2022-12-07T07:55:51;6.63;;;3.92;;
65275;SDS011;51875;49.994;14.052;2022-12-07T07:57:07;6.60;;;3.25;;
65275;SDS011;51875;49.994;14.052;2022-12-07T07:58:23;5.88;;;3.05;;
65275;SDS011;51875;49.994;14.052;2022-12-07T07:59:39;4.88;;;2.60;;
65275;SDS011;51875;49.994;14.052;2022-12-07T08:00:54;6.13;;;3.00;;
65275;SDS011;51875;49.994;14.052;2022-12-07T08:02:13;4.97;;;2.58;;
65275;SDS011;51875;49.994;14.052;2022-12-07T08:03:33;5.55;;;2.53;;
65275;SDS011;51875;49.994;14.052;2022-12-07T08:04:49;6.38;;;3.75;;
65275;SDS011;51875;49.994;14.052;2022-12-07T08:06:05;5.88;;;3.55;;
65275;SDS011;51875;49.994;14.052;2022-12-07T08:07:21;8.20;;;3.45;;
65275;SDS011;51875;49.994;14.052;2022-12-07T08:08:36;6.03;;;3.60;;
65275;SDS011;51875;49.994;14.052;2022-12-07T08:09:52;5.80;;;2.95;;
65275;SDS011;51875;49.994;14.052;2022-12-07T08:11:08;4.30;;;2.47;;
65275;SDS011;51875;49.994;14.052;2022-12-07T08:12:24;3.40;;;2.33;;
65275;SDS011;51875;49.994;14.052;2022-12-07T08:13:40;6.93;;;3.58;;
65275;SDS011;51875;49.994;14.052;2022-12-07T08:14:55;6.45;;;3.17;;
65275;SDS011;51875;49.994;14.052;2022-12-07T08:16:11;5.18;;;3.15;;